sensor_id;sensor_type;location;lat;lon;timestamp;P1;durP1;ratioP1;P2;durP2;ratioP2
13799;SDS011;6971;50.028;9.258;2022-09-09T00:06:32;3.10;;;1.80;;
13799;SDS011;6971;50.028;9.258;2022-09-09T00:11:40;3.93;;;2.00;;
13799;SDS011;6971;50.028;9.258;2022-09-09T00:17:04;4.17;;;2.10;;
13799;SDS011;6971;50.028;9.258;2022-09-09T00:22:18;6.53;;;1.80;;
13799;SDS011;6971;50.028;9.258;2022-09-09T00:32:34;3.13;;;1.90;;
13799;SDS011;6971;50.028;9.258;2022-09-09T00:37:36;2.33;;;1.63;;
13799;SDS011;6971;50.028;9.258;2022-09-09T00:47:47;3.20;;;1.77;;
13799;SDS011;6971;50.028;9.258;2022-09-09T00:58:21;4.80;;;1.60;;
13799;SDS011;6971;50.028;9.258;2022-09-09T01:08:36;2.90;;;2.00;;
13799;SDS011;6971;50.028;9.258;2022-09-09T01:13:53;4.70;;;1.73;;
13799;SDS011;6971;50.028;9.258;2022-09-09T01:19:02;4.90;;;2.27;;
13799;SDS011;6971;50.028;9.258;2022-09-09T01:29:35;3.23;;;1.70;;
13799;SDS011;6971;50.028;9.258;2022-09-09T01:34:38;4.83;;;1.97;;
13799;SDS011;6971;50.028;9.258;2022-09-09T01:39:42;4.67;;;1.70;;
13799;SDS011;6971;50.028;9.258;2022-09-09T01:44:45;7.43;;;2.27;;
13799;SDS011;6971;50.028;9.258;2022-09-09T01:49:46;8.87;;;1.97;;
13799;SDS011;6971;50.028;9.258;2022-09-09T01:54:46;6.83;;;1.63;;
13799;SDS011;6971;50.028;9.258;2022-09-09T01:59:49;6.70;;;2.03;;
13799;SDS011;6971;50.028;9.258;2022-09-09T02:05:02;3.57;;;1.57;;
13799;SDS011;6971;50.028;9.258;2022-09-09T02:15:58;3.23;;;1.83;;
13799;SDS011;6971;50.028;9.258;2022-09-09T02:21:03;3.13;;;1.80;;
13799;SDS011;6971;50.028;9.258;2022-09-09T02:26:07;5.67;;;1.80;;
13799;SDS011;6971;50.028;9.258;2022-09-09T02:31:14;2.20;;;2.00;;
13799;SDS011;6971;50.028;9.258;2022-09-09T02:36:19;4.83;;;1.87;;
13799;SDS011;6971;50.028;9.258;2022-09-09T02:41:25;4.23;;;2.33;;
13799;SDS011;6971;50.028;9.258;2022-09-09T02:52:05;7.03;;;2.00;;
13799;SDS011;6971;50.028;9.258;2022-09-09T02:57:21;3.23;;;1.87;;
13799;SDS011;6971;50.028;9.258;2022-09-09T03:02:24;4.23;;;1.80;;
13799;SDS011;6971;50.028;9.258;2022-09-09T03:07:26;5.67;;;1.60;;
13799;SDS011;6971;50.028;9.258;2022-09-09T03:12:28;4.53;;;1.57;;
13799;SDS011;6971;50.028;9.258;2022-09-09T03:17:29;5.50;;;2.03;;
13799;SDS011;6971;50.028;9.258;2022-09-09T03:22:30;4.33;;;1.70;;
13799;SDS011;6971;50.028;9.258;2022-09-09T03:27:31;2.90;;;1.73;;
13799;SDS011;6971;50.028;9.258;2022-09-09T03:32:32;6.40;;;1.90;;
13799;SDS011;6971;50.028;9.258;2022-09-09T03:37:33;4.30;;;1.83;;
13799;SDS011;6971;50.028;9.258;2022-09-09T03:42:35;5.47;;;2.10;;
13799;SDS011;6971;50.028;9.258;2022-09-09T03:47:37;2.80;;;2.23;;
13799;SDS011;6971;50.028;9.258;2022-09-09T03:52:38;4.23;;;2.00;;
13799;SDS011;6971;50.028;9.258;2022-09-09T03:57:41;5.20;;;2.00;;
13799;SDS011;6971;50.028;9.258;2022-09-09T04:02:42;8.30;;;2.40;;
13799;SDS011;6971;50.028;9.258;2022-09-09T04:07:44;5.93;;;2.10;;
13799;SDS011;6971;50.028;9.258;2022-09-09T04:12:46;4.00;;;2.03;;
13799;SDS011;6971;50.028;9.258;2022-09-09T04:17:48;5.77;;;2.00;;
13799;SDS011;6971;50.028;9.258;2022-09-09T04:22:49;5.23;;;2.17;;
13799;SDS011;6971;50.028;9.258;2022-09-09T04:27:53;4.67;;;2.53;;
13799;SDS011;6971;50.028;9.258;2022-09-09T04:32:56;4.47;;;2.00;;
13799;SDS011;6971;50.028;9.258;2022-09-09T04:37:57;7.17;;;2.27;;
13799;SDS011;6971;50.028;9.258;2022-09-09T04:42:58;7.10;;;2.53;;
13799;SDS011;6971;50.028;9.258;2022-09-09T04:48:01;3.80;;;2.00;;
13799;SDS011;6971;50.028;9.258;2022-09-09T04:53:12;3.73;;;2.20;;
13799;SDS011;6971;50.028;9.258;2022-09-09T04:58:13;4.00;;;1.93;;
13799;SDS011;6971;50.028;9.258;2022-09-09T05:03:14;7.20;;;2.50;;
13799;SDS011;6971;50.028;9.258;2022-09-09T05:08:15;7.27;;;2.50;;
13799;SDS011;6971;50.028;9.258;2022-09-09T05:13:28;4.47;;;2.03;;
13799;SDS011;6971;50.028;9.258;2022-09-09T05:18:29;6.27;;;2.20;;
13799;SDS011;6971;50.028;9.258;2022-09-09T05:23:30;4.50;;;2.20;;
13799;SDS011;6971;50.028;9.258;2022-09-09T05:28:33;4.97;;;2.27;;
13799;SDS011;6971;50.028;9.258;2022-09-09T05:33:36;8.33;;;2.70;;
13799;SDS011;6971;50.028;9.258;2022-09-09T05:38:37;6.43;;;2.80;;
13799;SDS011;6971;50.028;9.258;2022-09-09T05:43:38;5.00;;;2.30;;
13799;SDS011;6971;50.028;9.258;2022-09-09T05:48:40;9.93;;;2.37;;
13799;SDS011;6971;50.028;9.258;2022-09-09T05:53:43;4.07;;;2.50;;
13799;SDS011;6971;50.028;9.258;2022-09-09T05:58:47;3.73;;;2.00;;
13799;SDS011;6971;50.028;9.258;2022-09-09T06:03:50;4.03;;;2.10;;
13799;SDS011;6971;50.028;9.258;2022-09-09T06:08:54;3.77;;;2.03;;
13799;SDS011;6971;50.028;9.258;2022-09-09T06:14:00;4.37;;;2.30;;
13799;SDS011;6971;50.028;9.258;2022-09-09T06:19:01;6.87;;;2.10;;
13799;SDS011;6971;50.028;9.258;2022-09-09T06:24:05;9.57;;;1.97;;
13799;SDS011;6971;50.028;9.258;2022-09-09T06:29:08;5.97;;;1.97;;
13799;SDS011;6971;50.028;9.258;2022-09-09T06:34:10;5.13;;;1.90;;
13799;SDS011;6971;50.028;9.258;2022-09-09T06:39:10;4.30;;;1.70;;
13799;SDS011;6971;50.028;9.258;2022-09-09T06:44:11;3.90;;;1.87;;
13799;SDS011;6971;50.028;9.258;2022-09-09T06:49:12;6.43;;;1.80;;
13799;SDS011;6971;50.028;9.258;2022-09-09T06:54:13;3.37;;;1.20;;
13799;SDS011;6971;50.028;9.258;2022-09-09T06:59:33;2.53;;;1.60;;
13799;SDS011;6971;50.028;9.258;2022-09-09T07:04:34;2.87;;;1.40;;
13799;SDS011;6971;50.028;9.258;2022-09-09T07:09:35;1.77;;;1.20;;
13799;SDS011;6971;50.028;9.258;2022-09-09T07:14:36;3.43;;;1.60;;
13799;SDS011;6971;50.028;9.258;2022-09-09T07:19:53;8.33;;;2.07;;
13799;SDS011;6971;50.028;9.258;2022-09-09T07:24:54;3.73;;;1.10;;
13799;SDS011;6971;50.028;9.258;2022-09-09T07:29:55;4.83;;;1.30;;
13799;SDS011;6971;50.028;9.258;2022-09-09T07:34:56;3.00;;;1.53;;
13799;SDS011;6971;50.028;9.258;2022-09-09T07:39:58;6.37;;;1.60;;
13799;SDS011;6971;50.028;9.258;2022-09-09T07:45:00;5.73;;;1.30;;
13799;SDS011;6971;50.028;9.258;2022-09-09T07:50:01;4.93;;;1.50;;
13799;SDS011;6971;50.028;9.258;2022-09-09T07:55:02;7.10;;;1.50;;
13799;SDS011;6971;50.028;9.258;2022-09-09T08:00:17;4.27;;;1.50;;
13799;SDS011;6971;50.028;9.258;2022-09-09T08:05:20;2.70;;;1.23;;
13799;SDS011;6971;50.028;9.258;2022-09-09T08:10:23;3.07;;;1.37;;
13799;SDS011;6971;50.028;9.258;2022-09-09T08:15:24;3.80;;;1.50;;
13799;SDS011;6971;50.028;9.258;2022-09-09T08:20:26;5.37;;;1.17;;
13799;SDS011;6971;50.028;9.258;2022-09-09T08:25:28;2.93;;;1.33;;
13799;SDS011;6971;50.028;9.258;2022-09-09T08:30:29;5.40;;;1.53;;
13799;SDS011;6971;50.028;9.258;2022-09-09T08:35:30;5.07;;;1.63;;
13799;SDS011;6971;50.028;9.258;2022-09-09T08:40:33;7.50;;;2.00;;
13799;SDS011;6971;50.028;9.258;2022-09-09T08:50:49;7.57;;;2.03;;
13799;SDS011;6971;50.028;9.258;2022-09-09T08:55:56;4.23;;;1.50;;
13799;SDS011;6971;50.028;9.258;2022-09-09T09:06:26;4.77;;;1.70;;
13799;SDS011;6971;50.028;9.258;2022-09-09T09:11:40;5.97;;;2.50;;
13799;SDS011;6971;50.028;9.258;2022-09-09T09:27:32;7.07;;;1.70;;
13799;SDS011;6971;50.028;9.258;2022-09-09T09:32:40;5.97;;;2.00;;
13799;SDS011;6971;50.028;9.258;2022-09-09T09:37:50;5.70;;;1.60;;
13799;SDS011;6971;50.028;9.258;2022-09-09T09:42:59;7.70;;;2.10;;
13799;SDS011;6971;50.028;9.258;2022-09-09T09:48:02;5.23;;;2.03;;
13799;SDS011;6971;50.028;9.258;2022-09-09T09:53:05;6.50;;;2.00;;
13799;SDS011;6971;50.028;9.258;2022-09-09T09:58:35;8.87;;;3.43;;
13799;SDS011;6971;50.028;9.258;2022-09-09T10:03:52;7.03;;;1.80;;
13799;SDS011;6971;50.028;9.258;2022-09-09T10:08:57;4.83;;;1.70;;
13799;SDS011;6971;50.028;9.258;2022-09-09T10:14:03;4.80;;;1.87;;
13799;SDS011;6971;50.028;9.258;2022-09-09T10:19:45;6.63;;;1.87;;
13799;SDS011;6971;50.028;9.258;2022-09-09T10:36:02;5.80;;;1.47;;
13799;SDS011;6971;50.028;9.258;2022-09-09T10:41:13;4.43;;;1.50;;
13799;SDS011;6971;50.028;9.258;2022-09-09T10:46:27;3.87;;;1.40;;
13799;SDS011;6971;50.028;9.258;2022-09-09T10:51:51;5.07;;;1.40;;
13799;SDS011;6971;50.028;9.258;2022-09-09T10:57:24;5.77;;;1.57;;
13799;SDS011;6971;50.028;9.258;2022-09-09T11:02:33;3.27;;;1.50;;
13799;SDS011;6971;50.028;9.258;2022-09-09T11:07:38;3.77;;;1.07;;
13799;SDS011;6971;50.028;9.258;2022-09-09T11:12:41;2.20;;;1.20;;
13799;SDS011;6971;50.028;9.258;2022-09-09T11:17:52;3.90;;;1.37;;
13799;SDS011;6971;50.028;9.258;2022-09-09T11:23:17;2.93;;;1.33;;
13799;SDS011;6971;50.028;9.258;2022-09-09T11:44:46;5.07;;;1.57;;
13799;SDS011;6971;50.028;9.258;2022-09-09T11:49:47;7.43;;;1.60;;
13799;SDS011;6971;50.028;9.258;2022-09-09T11:54:49;4.77;;;1.63;;
13799;SDS011;6971;50.028;9.258;2022-09-09T11:59:51;4.73;;;1.30;;
13799;SDS011;6971;50.028;9.258;2022-09-09T12:05:06;2.23;;;1.13;;
13799;SDS011;6971;50.028;9.258;2022-09-09T12:15:33;5.27;;;1.30;;
13799;SDS011;6971;50.028;9.258;2022-09-09T12:20:38;5.40;;;1.20;;
13799;SDS011;6971;50.028;9.258;2022-09-09T12:25:53;3.13;;;0.93;;
13799;SDS011;6971;50.028;9.258;2022-09-09T12:36:03;5.00;;;1.10;;
13799;SDS011;6971;50.028;9.258;2022-09-09T12:41:17;2.93;;;1.10;;
13799;SDS011;6971;50.028;9.258;2022-09-09T12:46:40;4.37;;;1.00;;
13799;SDS011;6971;50.028;9.258;2022-09-09T12:51:44;3.73;;;1.00;;
13799;SDS011;6971;50.028;9.258;2022-09-09T12:56:46;2.03;;;1.10;;
13799;SDS011;6971;50.028;9.258;2022-09-09T13:01:56;1.97;;;1.07;;
13799;SDS011;6971;50.028;9.258;2022-09-09T13:07:09;3.13;;;1.00;;
13799;SDS011;6971;50.028;9.258;2022-09-09T13:12:14;4.03;;;1.37;;
13799;SDS011;6971;50.028;9.258;2022-09-09T13:17:22;4.00;;;1.37;;
13799;SDS011;6971;50.028;9.258;2022-09-09T13:22:35;3.40;;;1.10;;
13799;SDS011;6971;50.028;9.258;2022-09-09T13:27:38;5.50;;;1.20;;
13799;SDS011;6971;50.028;9.258;2022-09-09T13:32:41;4.50;;;1.90;;
13799;SDS011;6971;50.028;9.258;2022-09-09T13:37:41;3.17;;;1.13;;
13799;SDS011;6971;50.028;9.258;2022-09-09T13:42:56;3.57;;;1.00;;
13799;SDS011;6971;50.028;9.258;2022-09-09T13:47:59;3.27;;;0.93;;
13799;SDS011;6971;50.028;9.258;2022-09-09T13:53:09;3.47;;;1.20;;
13799;SDS011;6971;50.028;9.258;2022-09-09T13:58:16;4.00;;;1.30;;
13799;SDS011;6971;50.028;9.258;2022-09-09T14:03:22;3.07;;;0.67;;
13799;SDS011;6971;50.028;9.258;2022-09-09T14:08:26;2.40;;;0.90;;
13799;SDS011;6971;50.028;9.258;2022-09-09T14:13:27;1.60;;;0.93;;
13799;SDS011;6971;50.028;9.258;2022-09-09T14:18:28;1.77;;;1.10;;
13799;SDS011;6971;50.028;9.258;2022-09-09T14:23:30;2.53;;;1.03;;
13799;SDS011;6971;50.028;9.258;2022-09-09T14:28:31;6.07;;;1.40;;
13799;SDS011;6971;50.028;9.258;2022-09-09T14:33:33;4.87;;;1.10;;
13799;SDS011;6971;50.028;9.258;2022-09-09T14:38:36;2.60;;;1.17;;
13799;SDS011;6971;50.028;9.258;2022-09-09T14:43:42;3.77;;;1.00;;
13799;SDS011;6971;50.028;9.258;2022-09-09T14:48:43;4.37;;;1.30;;
13799;SDS011;6971;50.028;9.258;2022-09-09T14:53:45;2.03;;;1.60;;
13799;SDS011;6971;50.028;9.258;2022-09-09T14:58:47;4.23;;;1.00;;
13799;SDS011;6971;50.028;9.258;2022-09-09T15:03:57;3.10;;;1.17;;
13799;SDS011;6971;50.028;9.258;2022-09-09T15:09:12;2.37;;;1.00;;
13799;SDS011;6971;50.028;9.258;2022-09-09T15:14:14;2.63;;;0.87;;
13799;SDS011;6971;50.028;9.258;2022-09-09T15:19:15;4.23;;;1.10;;
13799;SDS011;6971;50.028;9.258;2022-09-09T15:24:17;1.50;;;1.00;;
13799;SDS011;6971;50.028;9.258;2022-09-09T15:29:18;1.47;;;0.90;;
13799;SDS011;6971;50.028;9.258;2022-09-09T15:34:20;2.40;;;0.80;;
13799;SDS011;6971;50.028;9.258;2022-09-09T15:39:24;3.33;;;0.90;;
13799;SDS011;6971;50.028;9.258;2022-09-09T15:44:26;2.03;;;1.03;;
13799;SDS011;6971;50.028;9.258;2022-09-09T15:49:27;2.83;;;1.20;;
13799;SDS011;6971;50.028;9.258;2022-09-09T15:54:33;2.40;;;1.00;;
13799;SDS011;6971;50.028;9.258;2022-09-09T15:59:35;1.87;;;0.70;;
13799;SDS011;6971;50.028;9.258;2022-09-09T16:04:37;3.73;;;1.20;;
13799;SDS011;6971;50.028;9.258;2022-09-09T16:09:38;2.43;;;1.43;;
13799;SDS011;6971;50.028;9.258;2022-09-09T16:14:39;1.40;;;0.90;;
13799;SDS011;6971;50.028;9.258;2022-09-09T16:19:41;2.70;;;1.30;;
13799;SDS011;6971;50.028;9.258;2022-09-09T16:24:42;4.20;;;1.40;;
13799;SDS011;6971;50.028;9.258;2022-09-09T16:29:45;2.17;;;1.53;;
13799;SDS011;6971;50.028;9.258;2022-09-09T16:35:00;3.23;;;1.20;;
13799;SDS011;6971;50.028;9.258;2022-09-09T16:40:02;4.43;;;1.40;;
13799;SDS011;6971;50.028;9.258;2022-09-09T16:45:04;3.93;;;1.40;;
13799;SDS011;6971;50.028;9.258;2022-09-09T16:50:06;4.73;;;1.53;;
13799;SDS011;6971;50.028;9.258;2022-09-09T16:55:07;3.47;;;1.43;;
13799;SDS011;6971;50.028;9.258;2022-09-09T17:00:10;4.30;;;1.40;;
13799;SDS011;6971;50.028;9.258;2022-09-09T17:05:11;2.60;;;1.17;;
13799;SDS011;6971;50.028;9.258;2022-09-09T17:10:12;2.43;;;1.23;;
13799;SDS011;6971;50.028;9.258;2022-09-09T17:15:14;4.37;;;1.57;;
13799;SDS011;6971;50.028;9.258;2022-09-09T17:20:16;3.03;;;1.20;;
13799;SDS011;6971;50.028;9.258;2022-09-09T17:25:17;2.27;;;1.03;;
13799;SDS011;6971;50.028;9.258;2022-09-09T17:30:18;2.67;;;1.20;;
13799;SDS011;6971;50.028;9.258;2022-09-09T17:35:19;3.07;;;1.10;;
13799;SDS011;6971;50.028;9.258;2022-09-09T17:40:36;2.90;;;1.10;;
13799;SDS011;6971;50.028;9.258;2022-09-09T17:45:37;3.10;;;1.30;;
13799;SDS011;6971;50.028;9.258;2022-09-09T17:50:39;4.07;;;1.40;;
13799;SDS011;6971;50.028;9.258;2022-09-09T17:55:40;3.57;;;1.13;;
13799;SDS011;6971;50.028;9.258;2022-09-09T18:00:41;2.83;;;1.10;;
13799;SDS011;6971;50.028;9.258;2022-09-09T18:05:42;2.90;;;1.20;;
13799;SDS011;6971;50.028;9.258;2022-09-09T18:10:50;2.33;;;1.40;;
13799;SDS011;6971;50.028;9.258;2022-09-09T18:15:53;3.03;;;1.30;;
13799;SDS011;6971;50.028;9.258;2022-09-09T18:21:02;2.77;;;1.20;;
13799;SDS011;6971;50.028;9.258;2022-09-09T18:26:16;4.47;;;1.37;;
13799;SDS011;6971;50.028;9.258;2022-09-09T18:31:19;2.83;;;1.00;;
13799;SDS011;6971;50.028;9.258;2022-09-09T18:36:24;3.80;;;1.53;;
13799;SDS011;6971;50.028;9.258;2022-09-09T18:41:31;3.87;;;1.20;;
13799;SDS011;6971;50.028;9.258;2022-09-09T18:46:49;5.00;;;1.20;;
13799;SDS011;6971;50.028;9.258;2022-09-09T18:51:52;3.20;;;1.50;;
13799;SDS011;6971;50.028;9.258;2022-09-09T18:56:53;1.70;;;1.27;;
13799;SDS011;6971;50.028;9.258;2022-09-09T19:01:56;2.10;;;1.43;;
13799;SDS011;6971;50.028;9.258;2022-09-09T19:06:57;3.90;;;1.30;;
13799;SDS011;6971;50.028;9.258;2022-09-09T19:11:59;5.47;;;1.30;;
13799;SDS011;6971;50.028;9.258;2022-09-09T19:17:00;2.43;;;1.27;;
13799;SDS011;6971;50.028;9.258;2022-09-09T19:22:01;2.53;;;1.00;;
13799;SDS011;6971;50.028;9.258;2022-09-09T19:27:04;1.80;;;1.33;;
13799;SDS011;6971;50.028;9.258;2022-09-09T19:32:25;2.27;;;1.23;;
13799;SDS011;6971;50.028;9.258;2022-09-09T19:37:26;2.17;;;1.40;;
13799;SDS011;6971;50.028;9.258;2022-09-09T19:42:28;3.17;;;1.20;;
13799;SDS011;6971;50.028;9.258;2022-09-09T19:47:31;2.80;;;1.20;;
13799;SDS011;6971;50.028;9.258;2022-09-09T19:52:32;3.03;;;1.10;;
13799;SDS011;6971;50.028;9.258;2022-09-09T19:57:34;1.70;;;1.17;;
13799;SDS011;6971;50.028;9.258;2022-09-09T20:02:35;2.20;;;1.20;;
13799;SDS011;6971;50.028;9.258;2022-09-09T20:07:36;2.23;;;1.17;;
13799;SDS011;6971;50.028;9.258;2022-09-09T20:12:37;2.20;;;0.90;;
13799;SDS011;6971;50.028;9.258;2022-09-09T20:17:41;3.20;;;1.10;;
13799;SDS011;6971;50.028;9.258;2022-09-09T20:22:42;2.30;;;0.87;;
13799;SDS011;6971;50.028;9.258;2022-09-09T20:27:43;1.47;;;1.00;;
13799;SDS011;6971;50.028;9.258;2022-09-09T20:32:44;1.90;;;1.33;;
13799;SDS011;6971;50.028;9.258;2022-09-09T20:37:47;3.40;;;1.00;;
13799;SDS011;6971;50.028;9.258;2022-09-09T20:42:49;1.97;;;1.10;;
13799;SDS011;6971;50.028;9.258;2022-09-09T20:47:51;2.20;;;1.20;;
13799;SDS011;6971;50.028;9.258;2022-09-09T20:52:52;1.13;;;1.00;;
13799;SDS011;6971;50.028;9.258;2022-09-09T20:57:53;1.70;;;1.07;;
13799;SDS011;6971;50.028;9.258;2022-09-09T21:02:58;0.90;;;0.90;;
13799;SDS011;6971;50.028;9.258;2022-09-09T21:07:59;1.70;;;1.03;;
13799;SDS011;6971;50.028;9.258;2022-09-09T21:13:01;2.00;;;1.43;;
13799;SDS011;6971;50.028;9.258;2022-09-09T21:18:02;2.63;;;1.20;;
13799;SDS011;6971;50.028;9.258;2022-09-09T21:23:04;1.63;;;1.17;;
13799;SDS011;6971;50.028;9.258;2022-09-09T21:28:06;1.57;;;1.30;;
13799;SDS011;6971;50.028;9.258;2022-09-09T21:33:08;1.40;;;1.30;;
13799;SDS011;6971;50.028;9.258;2022-09-09T21:38:14;1.57;;;1.10;;
13799;SDS011;6971;50.028;9.258;2022-09-09T21:43:17;3.57;;;1.30;;
13799;SDS011;6971;50.028;9.258;2022-09-09T21:48:20;2.57;;;1.30;;
13799;SDS011;6971;50.028;9.258;2022-09-09T21:53:23;4.50;;;1.30;;
13799;SDS011;6971;50.028;9.258;2022-09-09T21:58:24;1.30;;;0.97;;
13799;SDS011;6971;50.028;9.258;2022-09-09T22:03:25;4.17;;;1.33;;
13799;SDS011;6971;50.028;9.258;2022-09-09T22:08:26;2.10;;;1.40;;
13799;SDS011;6971;50.028;9.258;2022-09-09T22:13:28;4.00;;;1.77;;
13799;SDS011;6971;50.028;9.258;2022-09-09T22:18:30;1.50;;;1.00;;
13799;SDS011;6971;50.028;9.258;2022-09-09T22:23:32;3.47;;;1.37;;
13799;SDS011;6971;50.028;9.258;2022-09-09T22:28:33;3.00;;;1.30;;
13799;SDS011;6971;50.028;9.258;2022-09-09T22:33:34;3.83;;;1.37;;
13799;SDS011;6971;50.028;9.258;2022-09-09T22:38:37;2.00;;;1.43;;
13799;SDS011;6971;50.028;9.258;2022-09-09T22:43:50;2.53;;;1.10;;
13799;SDS011;6971;50.028;9.258;2022-09-09T22:48:50;1.30;;;1.20;;
13799;SDS011;6971;50.028;9.258;2022-09-09T22:53:51;3.23;;;1.80;;
13799;SDS011;6971;50.028;9.258;2022-09-09T22:58:53;2.40;;;1.30;;
13799;SDS011;6971;50.028;9.258;2022-09-09T23:03:56;1.57;;;1.30;;
13799;SDS011;6971;50.028;9.258;2022-09-09T23:09:02;2.10;;;1.50;;
13799;SDS011;6971;50.028;9.258;2022-09-09T23:14:04;2.17;;;1.43;;
13799;SDS011;6971;50.028;9.258;2022-09-09T23:19:14;1.97;;;1.13;;
13799;SDS011;6971;50.028;9.258;2022-09-09T23:24:16;2.97;;;1.30;;
13799;SDS011;6971;50.028;9.258;2022-09-09T23:29:18;2.90;;;1.60;;
13799;SDS011;6971;50.028;9.258;2022-09-09T23:34:19;4.37;;;1.40;;
13799;SDS011;6971;50.028;9.258;2022-09-09T23:39:19;1.40;;;1.30;;
13799;SDS011;6971;50.028;9.258;2022-09-09T23:44:22;3.10;;;1.40;;
13799;SDS011;6971;50.028;9.258;2022-09-09T23:49:23;4.10;;;1.50;;
13799;SDS011;6971;50.028;9.258;2022-09-09T23:54:26;1.43;;;1.33;;
13799;SDS011;6971;50.028;9.258;2022-09-09T23:59:26;2.27;;;1.30;;
